Time;durP1;ratioP1;P1;durP2;ratioP2;P2;SDS_P1;SDS_P2;PMS_P1;PMS_P2;Temp;Humidity;BMP_temperature;BMP_pressure;BME280_temperature;BME280_humidity;BME280_pressure;Samples;Min_cycle;Max_cycle;Signal;HPM_P1;HPM_P2
2023/11/04 00:01:55;;;;;;;;;;;9.10;68.20;;;4.04;100.00;93543.13;4972158;28;19932;-55
2023/11/04 00:04:20;;;;;;;;;;;9.00;68.10;;;4.03;100.00;93539.69;4972433;28;19913;-52
2023/11/04 00:06:46;;;;;;;;;;;9.00;68.10;;;4.00;100.00;93537.59;4972661;28;19917;-55
2023/11/04 00:09:12;;;;;;;;;;;9.00;68.20;;;4.00;100.00;93542.09;4972067;28;19976;-51
2023/11/04 00:11:38;;;;;;;;;;;9.00;68.20;;;4.00;100.00;93545.50;4972336;28;19913;-55
2023/11/04 00:14:04;;;;;;;;;;;9.00;68.20;;;4.02;100.00;93546.03;4972760;28;19996;-50
2023/11/04 00:16:31;;;;;;;;;;;8.90;68.20;;;4.03;100.00;93550.25;4972068;28;20356;-50
2023/11/04 00:18:56;;;;;;;;;;;8.90;68.20;;;4.03;100.00;93549.44;4972789;28;20008;-55
2023/11/04 00:21:22;;;;;;;;;;;8.90;68.30;;;4.01;100.00;93544.47;4971504;28;20052;-53
2023/11/04 00:23:48;;;;;;;;;;;8.90;68.30;;;4.04;100.00;93545.75;4972658;28;19921;-54
2023/11/04 00:26:14;;;;;;;;;;;8.90;68.30;;;4.01;100.00;93541.84;4972715;28;19917;-51
2023/11/04 00:28:40;;;;;;;;;;;8.90;68.40;;;4.02;100.00;93546.03;4971596;28;19920;-53
2023/11/04 00:31:07;;;;;;;;;;;8.90;68.50;;;4.07;100.00;93545.22;4986841;28;19913;-52
2023/11/04 00:33:33;;;;;;;;;;;8.90;68.60;;;4.13;100.00;93544.91;4971728;28;20343;-50
2023/11/04 00:35:59;;;;;;;;;;;8.90;68.70;;;4.16;100.00;93543.56;4972790;28;19909;-53
2023/11/04 00:38:25;;;;;;;;;;;8.90;68.80;;;4.17;100.00;93561.75;4972557;28;19948;-53
2023/11/04 00:40:51;;;;;;;;;;;8.90;68.90;;;4.21;100.00;93554.09;4971852;28;19909;-55
2023/11/04 00:43:17;;;;;;;;;;;9.00;68.90;;;4.24;100.00;93552.75;4971876;28;19984;-54
2023/11/04 00:45:42;;;;;;;;;;;9.00;69.70;;;4.30;100.00;93557.72;4971357;28;19914;-55
2023/11/04 00:48:08;;;;;;;;;;;9.10;69.00;;;4.31;100.00;93554.00;4972460;28;19913;-55
2023/11/04 00:50:36;;;;;;;;;;;9.10;69.00;;;4.33;100.00;93559.81;4972425;28;20387;-55
2023/11/04 00:53:03;;;;;;;;;;;9.10;69.00;;;4.37;100.00;93565.31;4971063;28;19997;-54
2023/11/04 00:55:29;;;;;;;;;;;9.10;68.90;;;4.41;100.00;93566.31;4987011;28;19941;-54
2023/11/04 00:57:55;;;;;;;;;;;9.10;68.90;;;4.38;100.00;93557.13;4971681;28;19918;-54
2023/11/04 01:00:25;;;;;;;;;;;9.10;68.80;;;4.40;100.00;93567.41;4972217;28;19910;-54
2023/11/04 01:02:54;;;;;;;;;;;9.20;68.90;;;4.41;100.00;93566.31;4964291;28;20304;-53
2023/11/04 01:05:21;;;;;;;;;;;9.20;68.90;;;4.43;100.00;93558.94;4972030;28;19921;-51
2023/11/04 01:07:47;;;;;;;;;;;9.20;68.90;;;4.44;100.00;93563.13;4970714;28;19910;-54
2023/11/04 01:10:13;;;;;;;;;;;9.20;68.80;;;4.43;100.00;93552.88;4971280;28;19916;-54
2023/11/04 01:12:40;;;;;;;;;;;9.20;68.70;;;4.42;100.00;93549.47;4971302;28;20008;-52
2023/11/04 01:15:06;;;;;;;;;;;9.20;68.60;;;4.39;100.00;93561.34;4971392;28;19929;-47
2023/11/04 01:17:32;;;;;;;;;;;9.20;68.60;;;4.32;100.00;93552.16;4972232;28;20004;-53
2023/11/04 01:19:58;;;;;;;;;;;9.10;68.40;;;4.31;100.00;93550.59;4972184;28;19948;-54
2023/11/04 01:22:24;;;;;;;;;;;9.10;68.50;;;4.27;100.00;93542.44;4970679;28;19910;-45
2023/11/04 01:24:50;;;;;;;;;;;9.00;68.40;;;4.26;100.00;93554.06;4971947;28;19914;-52
2023/11/04 01:27:16;;;;;;;;;;;9.00;68.40;;;4.25;100.00;93546.41;4971366;28;19917;-51
2023/11/04 01:29:42;;;;;;;;;;;9.00;68.50;;;4.24;100.00;93550.91;4971953;28;19960;-50
2023/11/04 01:32:07;;;;;;;;;;;9.00;68.50;;;4.23;100.00;93545.88;4971461;28;19909;-53
2023/11/04 01:34:33;;;;;;;;;;;9.00;68.90;;;4.21;100.00;93540.13;4971309;28;19949;-55
2023/11/04 01:36:59;;;;;;;;;;;8.90;68.30;;;4.11;100.00;93543.63;4972003;28;19917;-50
2023/11/04 01:39:25;;;;;;;;;;;8.90;68.30;;;3.99;100.00;93543.94;4970588;28;20418;-54
2023/11/04 01:41:51;;;;;;;;;;;8.90;68.20;;;3.93;100.00;93542.41;4971487;28;19917;-52
2023/11/04 01:44:17;;;;;;;;;;;8.80;68.10;;;3.87;100.00;93543.50;4982327;28;19913;-52
2023/11/04 01:46:44;;;;;;;;;;;8.70;68.10;;;3.78;100.00;93545.13;4970967;28;20001;-54
2023/11/04 01:49:10;;;;;;;;;;;8.60;68.00;;;3.69;100.00;93537.75;4970691;28;19921;-49
2023/11/04 01:51:36;;;;;;;;;;;8.60;68.00;;;3.64;100.00;93539.66;4970058;28;20249;-50
2023/11/04 01:54:03;;;;;;;;;;;8.50;68.10;;;3.63;100.00;93535.44;4970715;28;19976;-56
2023/11/04 01:56:35;;;;;;;;;;;8.50;68.30;;;3.63;100.00;93538.06;4971214;28;19917;-51
2023/11/04 01:59:03;;;;;;;;;;;8.40;68.40;;;3.59;100.00;93532.56;4974793;28;19965;-54
2023/11/04 02:01:31;;;;;;;;;;;8.40;69.20;;;3.56;100.00;93533.09;4974780;28;20395;-55
2023/11/04 02:03:56;;;;;;;;;;;8.30;68.40;;;3.53;100.00;93520.47;4974317;28;20380;-53
2023/11/04 02:06:22;;;;;;;;;;;8.30;68.40;;;3.47;100.00;93522.34;4972379;28;20008;-54
2023/11/04 02:08:48;;;;;;;;;;;8.30;68.40;;;3.45;100.00;93516.56;4974443;28;19913;-49
2023/11/04 02:11:14;;;;;;;;;;;8.20;68.40;;;3.34;100.00;93525.56;4974936;28;19916;-53
2023/11/04 02:13:40;;;;;;;;;;;8.20;68.20;;;3.24;100.00;93520.34;4973770;23;19926;-52
2023/11/04 02:16:07;;;;;;;;;;;8.10;68.10;;;3.18;100.00;93527.44;4954601;28;19921;-51
2023/11/04 02:18:32;;;;;;;;;;;8.10;68.20;;;3.21;100.00;93524.28;4953499;28;19988;-49
2023/11/04 02:20:59;;;;;;;;;;;8.00;68.40;;;3.24;100.00;93507.97;4954070;28;19961;-48
2023/11/04 02:23:26;;;;;;;;;;;8.00;68.60;;;3.23;100.00;93521.41;4943965;28;19910;-51
2023/11/04 02:25:53;;;;;;;;;;;8.00;68.60;;;3.23;100.00;93519.56;4936301;29;19910;-46
2023/11/04 02:28:20;;;;;;;;;;;8.00;68.60;;;3.26;100.00;93520.88;4935203;29;19911;-51
2023/11/04 02:30:45;;;;;;;;;;;8.00;68.80;;;3.31;100.00;93514.78;4934156;28;19911;-48
2023/11/04 02:33:11;;;;;;;;;;;8.00;68.90;;;3.37;100.00;93506.59;4944713;28;20271;-46
2023/11/04 02:35:37;;;;;;;;;;;7.90;69.00;;;3.37;100.00;93511.84;4938152;28;19910;-47
2023/11/04 02:38:03;;;;;;;;;;;8.00;69.00;;;3.38;100.00;93512.63;4937237;28;20013;-50
2023/11/04 02:40:29;;;;;;;;;;;8.00;69.00;;;3.38;100.00;93504.75;4936067;29;19910;-46
2023/11/04 02:42:54;;;;;;;;;;;8.00;69.00;;;3.41;100.00;93488.41;4936757;29;20038;-46
2023/11/04 02:45:20;;;;;;;;;;;8.10;69.00;;;3.47;100.00;93498.66;4936121;29;19914;-45
2023/11/04 02:47:46;;;;;;;;;;;8.10;69.00;;;3.52;100.00;93492.59;4937483;28;19937;-46
2023/11/04 02:50:13;;;;;;;;;;;8.10;69.10;;;3.56;100.00;93503.34;4941672;28;20285;-45
2023/11/04 02:52:40;;;;;;;;;;;8.10;69.00;;;3.56;100.00;93498.88;4935335;29;19916;-47
2023/11/04 02:55:07;;;;;;;;;;;8.10;68.90;;;3.56;100.00;93496.25;4936898;29;19918;-46
2023/11/04 02:57:33;;;;;;;;;;;8.10;68.90;;;3.57;100.00;93499.66;4935618;29;19917;-46
2023/11/04 02:59:59;;;;;;;;;;;8.10;68.80;;;3.52;100.00;93494.44;4936655;29;19910;-46
2023/11/04 03:02:25;;;;;;;;;;;8.10;68.60;;;3.50;100.00;93488.66;4936459;29;20012;-52
2023/11/04 03:04:53;;;;;;;;;;;8.10;68.60;;;3.46;100.00;93496.28;4935318;28;19927;-45
2023/11/04 03:07:20;;;;;;;;;;;8.10;68.40;;;3.36;100.00;93498.97;4936574;28;20009;-48
2023/11/04 03:09:46;;;;;;;;;;;8.10;68.30;;;3.29;100.00;93488.75;4935808;28;19917;-47
2023/11/04 03:12:12;;;;;;;;;;;8.00;68.10;;;3.21;100.00;93490.06;4936171;29;19910;-49
2023/11/04 03:14:38;;;;;;;;;;;7.90;68.00;;;3.11;100.00;93494.59;4936244;29;20013;-49
2023/11/04 03:17:04;;;;;;;;;;;7.90;68.00;;;2.98;100.00;93496.75;4935326;29;20391;-45
2023/11/04 03:19:32;;;;;;;;;;;7.80;67.80;;;2.85;100.00;93491.25;4936073;29;20001;-48
2023/11/04 03:21:57;;;;;;;;;;;7.70;67.70;;;2.72;100.00;93482.84;4935137;29;19917;-45
2023/11/04 03:24:23;;;;;;;;;;;7.70;67.70;;;2.58;100.00;93473.16;4936029;29;19914;-48
2023/11/04 03:26:49;;;;;;;;;;;7.60;67.50;;;2.48;100.00;93477.38;4935080;29;20373;-48
2023/11/04 03:29:15;;;;;;;;;;;7.50;67.50;;;2.37;100.00;93477.66;4936106;29;19911;-45
2023/11/04 03:31:41;;;;;;;;;;;7.40;67.50;;;2.28;100.00;93472.13;4935817;29;19914;-47
2023/11/04 03:34:07;;;;;;;;;;;7.30;67.50;;;2.20;100.00;93478.72;4934842;29;19914;-45
2023/11/04 03:36:33;;;;;;;;;;;7.20;67.60;;;2.14;100.00;93481.63;4935989;29;19910;-46
2023/11/04 03:38:58;;;;;;;;;;;7.10;67.70;;;2.05;100.00;93481.34;4934964;29;19911;-52
2023/11/04 03:41:24;;;;;;;;;;;7.00;67.70;;;1.99;100.00;93477.16;4935807;29;19911;-51
2023/11/04 03:43:50;;;;;;;;;;;7.00;67.80;;;1.97;100.00;93479.22;4927902;29;20293;-48
2023/11/04 03:46:16;;;;;;;;;;;6.90;67.90;;;1.93;100.00;93472.94;4934071;28;19917;-51
2023/11/04 03:48:42;;;;;;;;;;;6.90;67.90;;;1.91;100.00;93472.41;4935711;29;19910;-50
2023/11/04 03:51:08;;;;;;;;;;;6.80;68.10;;;1.88;100.00;93475.53;4935056;29;19937;-45
2023/11/04 03:53:35;;;;;;;;;;;6.80;68.10;;;1.82;100.00;93474.78;4935212;29;20262;-49
2023/11/04 03:56:03;;;;;;;;;;;6.70;68.20;;;1.76;100.00;93476.59;4935690;28;20381;-47
2023/11/04 03:58:29;;;;;;;;;;;6.70;68.10;;;1.75;100.00;93479.47;4934683;29;20001;-45
2023/11/04 04:00:56;;;;;;;;;;;6.60;68.20;;;1.84;100.00;93481.31;4935375;28;19918;-51
2023/11/04 04:03:22;;;;;;;;;;;6.70;68.60;;;1.88;100.00;93473.72;4934517;29;19915;-50
2023/11/04 04:05:48;;;;;;;;;;;6.60;68.70;;;1.88;100.00;93475.53;4935212;29;19941;-45
2023/11/04 04:08:16;;;;;;;;;;;6.70;68.80;;;1.80;100.00;93472.41;4936623;28;26774;-50
2023/11/04 04:10:42;;;;;;;;;;;6.70;68.60;;;1.68;100.00;93465.81;4944584;28;20029;-46
2023/11/04 04:13:08;;;;;;;;;;;6.60;68.40;;;1.68;100.00;93468.44;4954273;28;19924;-47
2023/11/04 04:15:34;;;;;;;;;;;6.60;68.40;;;1.64;100.00;93464.78;4948720;28;19922;-46
2023/11/04 04:17:59;;;;;;;;;;;6.60;68.40;;;1.60;100.00;93470.53;4953428;28;19937;-47
2023/11/04 04:20:26;;;;;;;;;;;6.50;69.10;;;1.58;100.00;93461.34;4953705;28;19916;-55
2023/11/04 04:22:52;;;;;;;;;;;6.50;68.40;;;1.49;100.00;93461.06;4949424;28;20288;-45
2023/11/04 04:25:18;;;;;;;;;;;6.50;68.40;;;1.50;100.00;93459.22;4954124;28;19921;-47
2023/11/04 04:27:44;;;;;;;;;;;6.40;68.30;;;1.47;100.00;93446.63;4963960;28;19950;-47
2023/11/04 04:30:10;;;;;;;;;;;6.40;68.40;;;1.41;100.00;93452.91;4954070;28;19960;-47
2023/11/04 04:32:36;;;;;;;;;;;6.40;68.40;;;1.42;100.00;93447.41;4953484;28;19956;-47
2023/11/04 04:35:02;;;;;;;;;;;6.30;68.40;;;1.42;100.00;93444.00;4947285;28;19956;-52
2023/11/04 04:37:28;;;;;;;;;;;6.30;68.50;;;1.39;100.00;93438.22;4954125;28;19910;-48
2023/11/04 04:39:54;;;;;;;;;;;6.30;68.50;;;1.36;100.00;93436.09;4949328;28;19964;-45
2023/11/04 04:42:20;;;;;;;;;;;6.30;68.60;;;1.33;100.00;93430.59;4954000;28;20344;-45
2023/11/04 04:44:46;;;;;;;;;;;6.30;68.60;;;1.32;100.00;93427.19;4953426;28;20004;-55
2023/11/04 04:47:12;;;;;;;;;;;6.20;68.70;;;1.29;100.00;93432.97;4950187;28;19916;-47
2023/11/04 04:49:38;;;;;;;;;;;6.20;68.60;;;1.37;100.00;93431.66;4953774;28;20005;-47
2023/11/04 04:52:04;;;;;;;;;;;6.20;68.80;;;1.57;100.00;93423.81;4948658;28;20284;-48
2023/11/04 04:54:30;;;;;;;;;;;6.30;69.30;;;1.69;100.00;93428.03;4953925;28;19910;-48
2023/11/04 04:56:55;;;;;;;;;;;6.40;70.40;;;1.72;100.00;93427.50;4951644;28;19910;-47
2023/11/04 04:59:21;;;;;;;;;;;6.40;69.80;;;1.71;100.00;93415.44;4949924;28;19914;-47
2023/11/04 05:01:47;;;;;;;;;;;6.50;69.70;;;1.66;100.00;93415.41;4953924;28;19972;-48
2023/11/04 05:04:13;;;;;;;;;;;6.50;69.50;;;1.62;100.00;93418.56;4951187;28;19914;-46
2023/11/04 05:06:40;;;;;;;;;;;6.50;69.20;;;1.57;100.00;93405.44;4953591;29;19960;-45
2023/11/04 05:09:06;;;;;;;;;;;6.50;69.10;;;1.55;100.00;93407.53;4950383;28;19981;-45
2023/11/04 05:11:32;;;;;;;;;;;6.50;69.00;;;1.49;100.00;93416.44;4950861;29;19910;-49
2023/11/04 05:13:58;;;;;;;;;;;6.50;69.00;;;1.52;100.00;93405.44;4953662;28;20274;-47
2023/11/04 05:16:24;;;;;;;;;;;6.50;68.90;;;1.52;100.00;93405.44;4946591;29;19917;-52
2023/11/04 05:18:51;;;;;;;;;;;6.50;68.90;;;1.49;100.00;93402.56;4953566;28;19910;-49
2023/11/04 05:21:16;;;;;;;;;;;6.40;68.80;;;1.47;100.00;93394.16;4948663;29;20325;-47
2023/11/04 05:23:45;;;;;;;;;;;6.50;68.90;;;1.45;100.00;93391.78;4952457;28;19914;-46
2023/11/04 05:26:13;;;;;;;;;;;6.40;68.70;;;1.42;100.00;93388.91;4953647;29;19946;-46
2023/11/04 05:28:40;;;;;;;;;;;6.40;68.70;;;1.37;100.00;93381.81;4948972;28;19910;-48
2023/11/04 05:31:08;;;;;;;;;;;6.30;68.70;;;1.36;100.00;93378.41;4953489;28;19917;-51
2023/11/04 05:33:33;;;;;;;;;;;6.30;68.70;;;1.36;100.00;93375.78;4945949;28;19957;-52
2023/11/04 05:35:59;;;;;;;;;;;6.30;68.70;;;1.34;100.00;93361.34;4957258;28;19955;-51
2023/11/04 05:38:27;;;;;;;;;;;6.30;68.80;;;1.33;100.00;93355.31;4957383;28;19910;-47
2023/11/04 05:40:54;;;;;;;;;;;6.30;68.90;;;1.30;100.00;93350.59;4944963;28;19940;-50
2023/11/04 05:43:20;;;;;;;;;;;6.20;68.90;;;1.29;100.00;93335.91;4957124;28;19910;-54
2023/11/04 05:45:47;;;;;;;;;;;6.20;69.00;;;1.34;100.00;93340.34;4951625;28;19928;-45
2023/11/04 05:48:13;;;;;;;;;;;6.20;69.10;;;1.34;100.00;93324.59;4955878;28;19910;-45
2023/11/04 05:50:39;;;;;;;;;;;6.20;69.10;;;1.36;100.00;93323.31;4956752;28;20336;-45
2023/11/04 05:53:05;;;;;;;;;;;6.30;69.20;;;1.32;100.00;93322.25;4951301;28;20012;-45
2023/11/04 05:55:31;;;;;;;;;;;6.20;69.10;;;1.32;100.00;93300.50;4956901;28;19936;-45
2023/11/04 05:57:58;;;;;;;;;;;6.30;69.20;;;1.30;100.00;93300.75;4954591;28;19910;-45
2023/11/04 06:00:24;;;;;;;;;;;6.30;69.20;;;1.32;100.00;93301.28;4956762;28;19953;-45
2023/11/04 06:02:50;;;;;;;;;;;6.20;69.20;;;1.33;100.00;93291.56;4952012;28;20383;-50
2023/11/04 06:05:16;;;;;;;;;;;6.30;69.20;;;1.37;100.00;93297.84;4951889;28;19914;-45
2023/11/04 06:07:43;;;;;;;;;;;6.20;69.30;;;1.45;100.00;93294.72;4957039;28;19910;-46
2023/11/04 06:10:08;;;;;;;;;;;6.30;69.30;;;1.50;100.00;93294.69;4951489;28;19910;-45
2023/11/04 06:12:37;;;;;;;;;;;6.30;69.40;;;1.52;100.00;93305.72;4956389;28;19972;-46
2023/11/04 06:15:04;;;;;;;;;;;6.40;69.50;;;1.53;100.00;93312.53;4953361;28;19914;-48
2023/11/04 06:17:30;;;;;;;;;;;6.40;69.40;;;1.55;100.00;93310.44;4949952;28;19917;-46
2023/11/04 06:19:57;;;;;;;;;;;6.40;69.40;;;1.55;100.00;93307.81;4956478;28;19910;-47
2023/11/04 06:22:23;;;;;;;;;;;6.40;69.30;;;1.52;100.00;93316.22;4946572;28;20297;-47
2023/11/04 06:24:52;;;;;;;;;;;6.50;69.20;;;1.51;100.00;93308.63;4949095;28;19914;-46
2023/11/04 06:27:19;;;;;;;;;;;6.40;69.10;;;1.49;100.00;93292.34;4945326;28;20447;-46
2023/11/04 06:29:45;;;;;;;;;;;6.50;69.10;;;1.46;100.00;93285.78;4952741;28;19910;-46
2023/11/04 06:32:11;;;;;;;;;;;6.40;68.90;;;1.41;100.00;93285.81;4947368;28;19920;-47
2023/11/04 06:34:39;;;;;;;;;;;6.50;68.80;;;1.36;100.00;93276.09;4947981;28;20262;-47
2023/11/04 06:37:06;;;;;;;;;;;6.40;68.70;;;1.35;100.00;93264.03;4956503;28;20368;-45
2023/11/04 06:39:32;;;;;;;;;;;6.40;68.70;;;1.35;100.00;93269.28;4952712;28;20370;-45
2023/11/04 06:41:59;;;;;;;;;;;6.40;68.70;;;1.39;100.00;93274.78;4948382;28;19913;-45
2023/11/04 06:44:25;;;;;;;;;;;6.50;68.90;;;1.41;100.00;93275.31;4951945;28;20332;-45
2023/11/04 06:46:54;;;;;;;;;;;6.50;68.90;;;1.52;100.00;93274.25;4947849;28;19926;-47
2023/11/04 06:49:20;;;;;;;;;;;6.50;68.90;;;1.50;100.00;93268.47;4948569;28;19917;-47
2023/11/04 06:51:46;;;;;;;;;;;6.60;68.80;;;1.55;100.00;93260.59;4947599;28;20404;-48
2023/11/04 06:54:12;;;;;;;;;;;6.60;68.80;;;1.56;100.00;93243.78;4952790;28;19937;-46
2023/11/04 06:56:38;;;;;;;;;;;6.60;68.70;;;1.59;100.00;93242.47;4938488;28;19992;-49
2023/11/04 06:59:04;;;;;;;;;;;6.70;68.70;;;1.62;100.00;93236.69;4936340;28;19964;-46
2023/11/04 07:01:30;;;;;;;;;;;6.80;68.60;;;1.60;100.00;93231.72;4938488;28;20005;-49
2023/11/04 07:03:56;;;;;;;;;;;6.80;68.50;;;1.66;100.00;93222.00;4937527;28;19914;-49
2023/11/04 07:06:22;;;;;;;;;;;6.90;68.50;;;1.73;100.00;93217.25;4939179;28;19957;-48
2023/11/04 07:08:48;;;;;;;;;;;7.00;69.30;;;1.82;100.00;93217.50;4947744;28;19910;-52
2023/11/04 07:11:16;;;;;;;;;;;7.10;68.40;;;1.88;100.00;93215.63;4939448;28;20301;-47
2023/11/04 07:13:43;;;;;;;;;;;7.20;68.50;;;1.96;100.00;93212.47;4953834;28;19973;-46
2023/11/04 07:16:11;;;;;;;;;;;7.30;68.40;;;2.02;100.00;93217.41;4949258;28;20385;-47
2023/11/04 07:18:38;;;;;;;;;;;7.40;68.40;;;2.13;100.00;93207.69;4953770;28;19917;-47
2023/11/04 07:21:05;;;;;;;;;;;7.50;68.30;;;2.20;100.00;93207.38;4946233;28;19921;-49
2023/11/04 07:23:31;;;;;;;;;;;7.60;68.30;;;2.27;100.00;93210.50;4948901;28;19927;-46
2023/11/04 07:25:57;;;;;;;;;;;7.60;68.20;;;2.31;100.00;93207.03;4955433;28;19943;-48
2023/11/04 07:28:23;;;;;;;;;;;7.70;68.20;;;2.35;100.00;93203.88;4949822;28;19952;-46
2023/11/04 07:30:52;;;;;;;;;;;7.70;68.10;;;2.36;100.00;93201.00;4970349;28;19917;-46
2023/11/04 07:33:19;;;;;;;;;;;7.80;68.00;;;2.41;100.00;93200.94;4942695;28;19914;-46
2023/11/04 07:35:46;;;;;;;;;;;7.70;67.90;;;2.46;100.00;93198.31;4954493;28;19910;-46
2023/11/04 07:38:13;;;;;;;;;;;7.80;67.80;;;2.54;100.00;93194.31;4944209;28;20372;-46
2023/11/04 07:40:39;;;;;;;;;;;7.90;67.80;;;2.62;100.00;93192.94;4946354;28;19910;-47
2023/11/04 07:43:05;;;;;;;;;;;8.00;67.80;;;2.72;100.00;93190.25;4953345;28;20448;-49
2023/11/04 07:45:33;;;;;;;;;;;8.10;67.70;;;2.83;100.00;93186.50;4941514;28;19914;-47
2023/11/04 07:47:59;;;;;;;;;;;8.20;67.80;;;2.91;100.00;93185.13;4950436;28;19934;-48
2023/11/04 07:50:24;;;;;;;;;;;8.30;67.80;;;2.94;100.00;93176.69;4950953;28;19910;-47
2023/11/04 07:52:50;;;;;;;;;;;8.40;67.80;;;2.97;100.00;93169.03;4945285;28;19910;-48
2023/11/04 07:55:16;;;;;;;;;;;8.50;67.70;;;3.07;100.00;93170.00;4953930;28;20432;-47
2023/11/04 07:57:42;;;;;;;;;;;8.50;67.50;;;3.15;100.00;93164.16;4951824;28;20355;-47
2023/11/04 08:00:10;;;;;;;;;;;8.60;67.50;;;3.19;100.00;93158.03;4954820;28;20005;-52
2023/11/04 08:02:38;;;;;;;;;;;8.70;67.40;;;3.21;100.00;93155.16;4954677;28;20367;-50
2023/11/04 08:05:04;;;;;;;;;;;8.70;67.30;;;3.34;100.00;93143.97;4948794;28;19920;-47
2023/11/04 08:07:31;;;;;;;;;;;8.80;67.20;;;3.47;100.00;93140.66;4954475;28;19910;-47
2023/11/04 08:10:01;;;;;;;;;;;8.90;67.10;;;3.58;100.00;93136.09;4949285;28;19914;-47
2023/11/04 08:12:26;;;;;;;;;;;9.10;66.90;;;3.74;100.00;93136.72;4950984;28;19910;-48
2023/11/04 08:14:52;;;;;;;;;;;9.30;66.70;;;3.91;99.66;93137.00;4979695;23;19975;-48
2023/11/04 08:17:18;;;;;;;;;;;9.70;66.60;;;4.26;98.00;93132.38;4957174;28;19921;-52
2023/11/04 08:19:44;;;;;;;;;;;10.20;66.30;;;4.71;96.89;93127.50;4972393;28;19956;-51
2023/11/04 08:22:13;;;;;;;;;;;10.70;66.20;;;5.15;93.07;93125.50;4961988;28;20433;-57
2023/11/04 08:24:39;;;;;;;;;;;11.20;66.00;;;5.43;93.38;93121.84;4970776;28;20013;-52
2023/11/04 08:27:05;;;;;;;;;;;11.40;65.70;;;5.68;87.81;93111.88;4969818;28;20354;-53
2023/11/04 08:29:31;;;;;;;;;;;11.70;65.60;;;5.93;87.75;93107.97;4972672;28;19917;-53
2023/11/04 08:31:59;;;;;;;;;;;12.00;65.30;;;6.24;86.92;93108.13;4965039;28;19920;-57
2023/11/04 08:34:26;;;;;;;;;;;12.30;65.00;;;6.45;81.83;93103.16;4961638;28;20726;-51
2023/11/04 08:36:52;;;;;;;;;;;12.70;64.70;;;6.77;82.16;93093.44;4963496;28;19910;-57
2023/11/04 08:39:18;;;;;;;;;;;12.90;64.20;;;7.04;80.82;93085.38;4968198;28;19956;-55
2023/11/04 08:41:44;;;;;;;;;;;13.20;64.00;;;7.27;78.52;93085.34;4965853;28;19917;-54
2023/11/04 08:44:17;;;;;;;;;;;13.50;63.60;;;7.54;75.82;93079.09;4972658;28;19917;-53
2023/11/04 08:46:43;;;;;;;;;;;13.80;63.30;;;7.77;75.93;93079.78;4957198;28;19937;-53
2023/11/04 08:49:09;;;;;;;;;;;14.20;63.10;;;7.99;71.27;93074.41;4969887;28;20360;-51
2023/11/04 08:51:36;;;;;;;;;;;14.50;62.70;;;8.25;72.49;93071.03;4966877;28;19961;-55
2023/11/04 08:54:02;;;;;;;;;;;14.80;61.90;;;8.56;70.94;93062.94;4971981;28;19909;-55
2023/11/04 08:56:28;;;;;;;;;;;15.20;61.60;;;8.81;66.89;93064.03;4972664;28;19910;-53
2023/11/04 08:58:54;;;;;;;;;;;15.60;61.10;;;9.15;65.96;93052.56;4967953;28;19960;-50
2023/11/04 09:01:22;;;;;;;;;;;16.00;60.60;;;9.30;65.75;93050.47;4965792;28;19918;-53
2023/11/04 09:03:49;;;;;;;;;;;16.30;59.80;;;9.65;64.59;93048.47;4952163;28;19940;-49
2023/11/04 09:06:15;;;;;;;;;;;16.50;59.60;;;9.75;63.49;93045.47;4971350;28;19933;-52
2023/11/04 09:08:42;;;;;;;;;;;16.80;59.30;;;10.04;62.85;93052.66;4972754;28;19921;-50
2023/11/04 09:11:08;;;;;;;;;;;17.10;59.10;;;10.33;61.39;93049.22;4968680;28;19926;-54
2023/11/04 09:13:33;;;;;;;;;;;17.40;59.00;;;10.40;57.57;93049.50;4972579;28;19948;-53
2023/11/04 09:16:02;;;;;;;;;;;17.50;58.60;;;10.54;57.34;93054.53;4967438;28;19965;-53
2023/11/04 09:18:27;;;;;;;;;;;17.50;57.80;;;10.74;58.11;93047.63;4974869;28;19961;-51
2023/11/04 09:20:53;;;;;;;;;;;17.60;57.70;;;11.03;59.30;93051.28;4977676;28;20334;-48
2023/11/04 09:23:19;;;;;;;;;;;17.80;57.70;;;11.22;55.70;93045.47;4973756;28;19918;-55
2023/11/04 09:25:45;;;;;;;;;;;18.20;57.60;;;11.33;54.25;93033.28;4966153;28;20353;-52
2023/11/04 09:28:12;;;;;;;;;;;18.50;57.30;;;11.36;52.84;93035.28;4962198;28;19949;-52
2023/11/04 09:30:38;;;;;;;;;;;18.70;57.10;;;10.95;57.09;93038.84;4970590;28;19913;-46
2023/11/04 09:33:04;;;;;;;;;;;18.80;56.60;;;11.14;54.86;93033.03;4967916;28;20290;-45
2023/11/04 09:35:29;;;;;;;;;;;18.80;56.40;;;11.07;54.03;93023.69;4969950;28;19924;-48
2023/11/04 09:37:55;;;;;;;;;;;18.70;56.30;;;11.10;53.20;93016.94;4971892;28;20068;-49
2023/11/04 09:40:21;;;;;;;;;;;18.50;56.20;;;11.22;54.42;93018.81;4962698;28;20280;-48
2023/11/04 09:42:47;;;;;;;;;;;18.40;56.20;;;11.34;53.89;93011.66;4969147;28;19925;-51
2023/11/04 09:45:18;;;;;;;;;;;18.30;56.20;;;11.28;52.05;93012.97;4972048;28;19923;-54
2023/11/04 09:47:43;;;;;;;;;;;18.20;56.10;;;11.14;52.30;93014.38;4973926;28;19972;-53
2023/11/04 09:50:10;;;;;;;;;;;18.10;56.00;;;10.80;53.55;93006.38;4978441;28;19941;-52
2023/11/04 09:52:40;;;;;;;;;;;18.00;55.80;;;10.63;54.19;92994.03;4965826;28;19910;-51
2023/11/04 09:55:07;;;;;;;;;;;17.80;55.70;;;10.53;54.52;92990.97;4978640;28;19941;-51
2023/11/04 09:57:33;;;;;;;;;;;17.60;55.70;;;10.41;55.96;92981.84;4968531;28;19914;-55
2023/11/04 10:00:03;;;;;;;;;;;17.40;55.60;;;10.24;57.15;92986.50;4993201;28;19910;-55
2023/11/04 10:02:29;;;;;;;;;;;17.10;55.60;;;10.31;56.33;92995.56;4977539;28;19916;-54
2023/11/04 10:04:54;;;;;;;;;;;16.90;55.70;;;10.31;58.76;93008.06;4955426;28;19922;-51
2023/11/04 10:07:23;;;;;;;;;;;16.80;55.80;;;10.31;57.51;93024.81;4982955;28;19925;-54
2023/11/04 10:09:49;;;;;;;;;;;16.70;55.90;;;10.29;60.75;93055.50;4969755;28;19910;-54
2023/11/04 10:12:15;;;;;;;;;;;16.60;55.90;;;10.17;60.98;93053.53;4968912;28;19910;-55
2023/11/04 10:14:41;;;;;;;;;;;16.60;56.00;;;10.12;63.33;93065.13;4974336;28;20012;-54
2023/11/04 10:17:07;;;;;;;;;;;16.50;55.80;;;10.01;63.29;93061.28;4970614;28;20244;-55
2023/11/04 10:19:37;;;;;;;;;;;16.30;55.60;;;9.74;63.33;93070.47;4973908;28;19917;-53
2023/11/04 10:22:04;;;;;;;;;;;16.20;55.30;;;9.44;68.36;93065.13;4964742;28;19910;-54
2023/11/04 10:24:30;;;;;;;;;;;15.90;55.20;;;9.16;71.67;93064.75;4964127;28;19924;-51
2023/11/04 10:26:56;;;;;;;;;;;15.60;55.20;;;8.91;73.14;93070.88;4968482;28;20516;-52
2023/11/04 10:29:22;;;;;;;;;;;15.30;55.30;;;8.69;74.29;93053.25;4967337;28;20275;-54
2023/11/04 10:31:53;;;;;;;;;;;15.00;55.40;;;8.49;76.35;93059.97;4966411;28;19913;-48
2023/11/04 10:34:29;;;;;;;;;;;14.80;55.50;;;8.19;77.75;93061.66;4962134;28;19949;-55
2023/11/04 10:36:58;;;;;;;;;;;14.40;55.60;;;8.06;78.58;93047.44;4973892;28;19944;-54
2023/11/04 10:39:25;;;;;;;;;;;14.20;55.70;;;7.94;79.66;93048.03;4967401;28;19986;-55
2023/11/04 10:42:10;;;;;;;;;;;13.90;55.90;;;7.84;79.75;93041.16;4969687;28;19909;-50
2023/11/04 10:44:44;;;;;;;;;;;13.70;56.00;;;7.79;81.09;93032.56;4972947;28;20292;-50
2023/11/04 10:47:51;;;;;;;;;;;13.50;56.30;;;7.77;81.72;93016.19;4955877;28;20000;-56
2023/11/04 10:50:31;;;;;;;;;;;13.50;56.70;;;7.88;81.91;92991.72;4974561;28;20012;-54
2023/11/04 10:53:22;;;;;;;;;;;13.50;56.80;;;7.96;79.52;92969.00;4966320;28;19917;-52
2023/11/04 10:56:03;;;;;;;;;;;13.60;57.00;;;8.02;77.89;92980.19;4973257;28;19910;-57
2023/11/04 10:58:41;;;;;;;;;;;13.80;57.10;;;8.17;76.16;92952.44;4968752;28;20292;-57
2023/11/04 11:01:09;;;;;;;;;;;13.90;56.90;;;8.37;75.26;92953.66;4973227;28;20001;-54
2023/11/04 11:03:38;;;;;;;;;;;14.20;57.50;;;8.48;76.58;92936.38;4968319;28;19910;-57
2023/11/04 11:06:05;;;;;;;;;;;14.40;56.70;;;8.63;75.85;92911.22;4973377;28;20412;-56
2023/11/04 11:08:32;;;;;;;;;;;14.60;56.70;;;8.83;75.35;92883.97;4973142;28;20407;-53
2023/11/04 11:11:32;;;;;;;;;;;14.80;56.60;;;8.99;73.06;92870.94;4968756;28;19910;-55
2023/11/04 11:14:00;;;;;;;;;;;14.90;56.50;;;8.97;73.34;92854.56;4972751;28;19917;-56
2023/11/04 11:16:26;;;;;;;;;;;15.00;56.40;;;8.73;71.30;92847.94;4966640;28;20410;-54
2023/11/04 11:18:52;;;;;;;;;;;15.10;56.30;;;8.54;71.00;92835.06;4968150;28;19916;-53
2023/11/04 11:21:21;;;;;;;;;;;15.10;56.10;;;8.77;72.63;92829.50;4967182;28;19914;-53
2023/11/04 11:23:47;;;;;;;;;;;15.10;56.00;;;8.95;70.07;92838.16;4971856;28;19918;-54